Time;durP1;ratioP1;P1;durP2;ratioP2;P2;SDS_P1;SDS_P2;PMS_P1;PMS_P2;Temp;Humidity;BMP_temperature;BMP_pressure;BME280_temperature;BME280_humidity;BME280_pressure;Samples;Min_cycle;Max_cycle;Signal;HPM_P1;HPM_P2
2023/07/17 00:01:33;;;;;;;3.50;2.20;;;17.10;99.90;;;;;;5024848;28;20129;-79
2023/07/17 00:03:59;;;;;;;3.35;2.40;;;17.10;99.90;;;;;;5032289;28;20037;-79
2023/07/17 00:06:25;;;;;;;7.45;2.88;;;17.10;99.90;;;;;;5045992;28;20495;-79
2023/07/17 00:08:51;;;;;;;2.65;2.22;;;17.10;99.90;;;;;;5025808;28;20063;-79
2023/07/17 00:11:16;;;;;;;4.45;2.50;;;17.00;99.90;;;;;;5042465;28;20065;-79
2023/07/17 00:13:42;;;;;;;6.55;2.67;;;17.00;99.90;;;;;;5046673;28;20558;-79
2023/07/17 00:16:08;;;;;;;3.95;2.28;;;17.00;99.90;;;;;;5039747;28;20041;-79
2023/07/17 00:18:34;;;;;;;4.13;2.80;;;17.00;99.90;;;;;;5048663;28;20513;-79
2023/07/17 00:21:03;;;;;;;6.20;2.70;;;17.00;99.90;;;;;;5020635;28;20043;-78
2023/07/17 00:23:29;;;;;;;3.33;2.20;;;16.90;99.90;;;;;;5015249;28;20049;-79
2023/07/17 00:25:55;;;;;;;2.95;2.35;;;17.00;99.90;;;;;;5079702;28;20139;-79
2023/07/17 00:28:21;;;;;;;5.18;2.63;;;16.90;99.90;;;;;;5032705;28;20060;-79
2023/07/17 00:30:47;;;;;;;5.05;3.58;;;16.90;99.90;;;;;;5027001;28;20256;-79
2023/07/17 00:33:13;;;;;;;4.45;2.50;;;16.90;99.90;;;;;;5010031;28;20094;-79
2023/07/17 00:35:38;;;;;;;5.65;2.67;;;16.90;99.90;;;;;;5025299;28;20045;-79
2023/07/17 00:38:04;;;;;;;4.90;2.60;;;16.90;99.90;;;;;;5009678;28;20045;-79
2023/07/17 00:40:30;;;;;;;7.47;2.60;;;16.90;99.90;;;;;;5075059;28;20048;-79
2023/07/17 00:43:00;;;;;;;4.22;2.28;;;16.90;99.90;;;;;;5057596;28;20041;-78
2023/07/17 00:45:29;;;;;;;7.15;2.47;;;16.90;99.90;;;;;;5028908;28;20098;-79
2023/07/17 00:47:56;;;;;;;3.33;2.67;;;16.90;99.90;;;;;;5043673;28;20040;-79
2023/07/17 00:50:21;;;;;;;2.72;2.30;;;16.90;99.90;;;;;;5010158;28;20037;-78
2023/07/17 00:52:47;;;;;;;4.45;2.70;;;16.90;99.90;;;;;;5024188;28;20206;-79
2023/07/17 00:55:13;;;;;;;7.95;2.60;;;16.90;99.90;;;;;;5008599;28;20109;-79
2023/07/17 00:57:40;;;;;;;5.57;3.00;;;16.90;99.90;;;;;;5020839;28;20037;-78
2023/07/17 01:00:08;;;;;;;6.07;2.60;;;16.90;99.90;;;;;;5027758;28;20060;-79
2023/07/17 01:02:37;;;;;;;4.82;2.75;;;16.90;99.90;;;;;;5014319;28;20045;-79
2023/07/17 01:05:03;;;;;;;4.82;2.55;;;16.90;99.90;;;;;;5026792;28;20029;-79
2023/07/17 01:07:28;;;;;;;4.40;2.40;;;16.90;99.90;;;;;;5029439;28;20051;-79
2023/07/17 01:09:54;;;;;;;5.78;2.50;;;16.90;99.90;;;;;;5030518;28;20033;-79
2023/07/17 01:12:20;;;;;;;4.05;2.63;;;16.90;99.90;;;;;;5010313;28;20338;-79
2023/07/17 01:14:47;;;;;;;6.88;2.83;;;16.90;99.90;;;;;;5078753;28;20102;-79
2023/07/17 01:17:13;;;;;;;3.33;2.15;;;16.90;99.90;;;;;;5026870;28;20041;-79
2023/07/17 01:19:38;;;;;;;3.63;2.53;;;16.90;99.90;;;;;;5018981;28;20110;-79
2023/07/17 01:22:26;;;;;;;5.32;2.67;;;16.90;99.90;;;;;;5046659;28;20061;-79
2023/07/17 01:24:52;;;;;;;6.93;2.42;;;16.90;99.90;;;;;;5028279;28;20043;-79
2023/07/17 01:27:18;;;;;;;6.85;2.75;;;16.80;99.90;;;;;;5026480;28;20773;-78
2023/07/17 01:29:44;;;;;;;6.25;2.60;;;16.90;99.90;;;;;;5041468;28;20121;-79
2023/07/17 01:32:10;;;;;;;7.75;3.22;;;16.80;99.90;;;;;;5054239;28;20242;-79
2023/07/17 01:34:36;;;;;;;7.15;3.38;;;16.80;99.90;;;;;;5022118;28;20110;-79
2023/07/17 01:37:02;;;;;;;5.72;2.80;;;16.80;99.90;;;;;;5025786;28;20127;-79
2023/07/17 01:39:28;;;;;;;4.13;2.55;;;16.80;99.90;;;;;;5054354;28;20106;-78
2023/07/17 01:41:53;;;;;;;4.95;2.38;;;16.70;99.90;;;;;;5006057;28;20494;-79
2023/07/17 01:44:19;;;;;;;3.67;2.30;;;16.70;99.90;;;;;;5019611;28;20046;-79
2023/07/17 01:46:45;;;;;;;7.03;2.70;;;16.60;99.90;;;;;;5076233;28;20174;-79
2023/07/17 01:49:10;;;;;;;4.65;2.50;;;16.60;99.90;;;;;;5016094;28;20059;-79
2023/07/17 01:51:36;;;;;;;5.03;2.47;;;16.50;99.90;;;;;;5039781;28;20139;-79
2023/07/17 01:54:02;;;;;;;3.80;2.42;;;16.50;99.90;;;;;;5077852;28;20040;-80
2023/07/17 01:56:28;;;;;;;4.97;2.53;;;16.50;99.90;;;;;;5026102;28;20678;-79
2023/07/17 01:58:54;;;;;;;4.32;2.50;;;16.40;99.90;;;;;;5042095;28;20564;-79
2023/07/17 02:01:19;;;;;;;5.93;2.55;;;16.40;99.90;;;;;;5025550;28;20375;-78
2023/07/17 02:03:45;;;;;;;5.97;2.70;;;16.30;99.90;;;;;;5030985;28;20044;-78
2023/07/17 02:06:11;;;;;;;4.20;2.20;;;16.30;99.90;;;;;;5028157;28;20033;-77
2023/07/17 02:08:37;;;;;;;5.18;2.55;;;16.20;99.90;;;;;;5039793;28;20028;-78
2023/07/17 02:11:03;;;;;;;4.50;2.30;;;16.20;99.90;;;;;;5018992;28;20053;-78
2023/07/17 02:13:29;;;;;;;6.50;2.88;;;16.20;99.90;;;;;;5042562;28;20048;-78
2023/07/17 02:15:56;;;;;;;6.30;2.75;;;16.10;99.90;;;;;;5040347;28;20095;-77
2023/07/17 02:18:22;;;;;;;4.30;2.20;;;16.10;99.90;;;;;;5041726;28;20127;-78
2023/07/17 02:20:51;;;;;;;5.72;2.97;;;16.10;99.90;;;;;;5020250;28;20394;-78
2023/07/17 02:23:17;;;;;;;4.60;2.55;;;16.10;99.90;;;;;;5031875;28;20045;-78
2023/07/17 02:25:43;;;;;;;8.40;3.08;;;16.10;99.90;;;;;;5019296;28;20430;-78
2023/07/17 02:28:09;;;;;;;9.15;2.88;;;16.00;99.90;;;;;;5036237;28;20064;-78
2023/07/17 02:30:35;;;;;;;7.35;2.95;;;16.00;99.90;;;;;;5028129;28;20518;-78
2023/07/17 02:33:01;;;;;;;7.70;2.53;;;16.00;99.90;;;;;;5010113;28;20073;-78
2023/07/17 02:35:26;;;;;;;8.05;3.10;;;16.00;99.90;;;;;;5042982;28;20087;-78
2023/07/17 02:37:52;;;;;;;6.80;2.60;;;16.00;99.90;;;;;;5020314;28;20055;-78
2023/07/17 02:40:18;;;;;;;6.90;2.55;;;15.90;99.90;;;;;;5041821;28;20033;-78
2023/07/17 02:42:44;;;;;;;7.40;2.60;;;15.90;99.90;;;;;;5076125;28;20087;-78
2023/07/17 02:45:10;;;;;;;6.07;3.08;;;15.80;99.90;;;;;;5021668;28;20049;-78
2023/07/17 02:47:36;;;;;;;6.13;3.05;;;15.80;99.90;;;;;;5062379;28;20076;-78
2023/07/17 02:50:07;;;;;;;6.03;2.50;;;15.80;99.90;;;;;;5008711;28;20124;-78
2023/07/17 02:52:34;;;;;;;4.75;2.53;;;15.80;99.90;;;;;;5021124;28;20114;-78
2023/07/17 02:55:04;;;;;;;6.70;3.00;;;15.80;99.90;;;;;;5002623;28;20190;-77
2023/07/17 02:57:33;;;;;;;6.22;2.60;;;15.70;99.90;;;;;;5056379;28;20060;-78
2023/07/17 02:59:58;;;;;;;5.78;3.00;;;15.70;99.90;;;;;;5009905;28;20034;-78
2023/07/17 03:02:24;;;;;;;5.22;2.63;;;15.60;99.90;;;;;;5061539;28;20505;-78
2023/07/17 03:04:50;;;;;;;7.78;3.10;;;15.60;99.90;;;;;;5002334;28;20051;-78
2023/07/17 03:07:15;;;;;;;6.00;2.55;;;15.60;99.90;;;;;;5039336;28;20038;-78
2023/07/17 03:09:41;;;;;;;6.43;2.95;;;15.60;99.90;;;;;;5043831;28;20032;-78
2023/07/17 03:12:07;;;;;;;8.63;3.35;;;15.60;99.90;;;;;;5042724;28;20033;-78
2023/07/17 03:14:33;;;;;;;7.50;2.70;;;15.50;99.90;;;;;;5010797;28;20045;-78
2023/07/17 03:16:59;;;;;;;6.40;3.08;;;15.50;99.90;;;;;;5025088;28;20437;-78
2023/07/17 03:19:25;;;;;;;5.60;2.80;;;15.50;99.90;;;;;;5008914;28;20123;-78
2023/07/17 03:21:51;;;;;;;10.82;2.70;;;15.40;99.90;;;;;;5023784;28;20419;-77
2023/07/17 03:24:17;;;;;;;6.25;3.38;;;15.40;99.90;;;;;;5005373;28;20040;-77
2023/07/17 03:26:42;;;;;;;4.90;2.75;;;15.40;99.90;;;;;;5005409;28;20037;-77
2023/07/17 03:29:08;;;;;;;7.30;3.28;;;15.40;99.90;;;;;;5057244;28;20043;-78
2023/07/17 03:31:34;;;;;;;9.45;3.42;;;15.30;99.90;;;;;;5037305;28;20033;-78
2023/07/17 03:33:59;;;;;;;8.98;3.10;;;15.30;99.90;;;;;;5004997;28;20033;-78
2023/07/17 03:36:25;;;;;;;6.38;3.28;;;15.30;99.90;;;;;;5007731;28;20048;-78
2023/07/17 03:38:51;;;;;;;5.80;2.97;;;15.30;99.90;;;;;;5006986;28;20295;-78
2023/07/17 03:41:20;;;;;;;5.28;2.95;;;15.20;99.90;;;;;;5009909;28;20045;-78
2023/07/17 03:43:46;;;;;;;7.00;3.40;;;15.20;99.90;;;;;;5005927;28;20064;-78
2023/07/17 03:46:13;;;;;;;7.97;3.13;;;15.20;99.90;;;;;;5023729;28;20033;-78
2023/07/17 03:48:39;;;;;;;7.80;3.33;;;15.20;99.90;;;;;;5015193;28;20116;-78
2023/07/17 03:51:04;;;;;;;7.30;3.80;;;15.10;99.90;;;;;;5037262;28;20170;-78
2023/07/17 03:53:30;;;;;;;11.05;4.05;;;15.10;99.90;;;;;;5047980;28;20407;-77
2023/07/17 03:55:56;;;;;;;5.63;3.28;;;15.00;99.90;;;;;;5021788;28;20116;-78
2023/07/17 03:58:22;;;;;;;8.05;3.53;;;15.00;99.90;;;;;;5015849;28;20041;-78
2023/07/17 04:00:47;;;;;;;9.35;3.55;;;15.00;99.90;;;;;;5006805;28;20494;-78
2023/07/17 04:03:13;;;;;;;7.72;3.67;;;14.90;99.90;;;;;;5027099;28;20265;-78
2023/07/17 04:05:39;;;;;;;6.32;3.50;;;14.90;99.90;;;;;;5014095;28;20041;-78
2023/07/17 04:08:04;;;;;;;7.35;3.67;;;14.90;99.90;;;;;;5011227;28;20602;-78
2023/07/17 04:10:30;;;;;;;10.55;3.78;;;14.90;99.90;;;;;;5010236;28;20115;-77
2023/07/17 04:12:56;;;;;;;6.57;3.60;;;14.90;99.90;;;;;;5075775;28;20052;-77
2023/07/17 04:15:22;;;;;;;8.85;3.90;;;14.90;99.90;;;;;;5041121;28;20040;-78
2023/07/17 04:17:47;;;;;;;6.97;3.70;;;14.90;99.90;;;;;;5060577;28;20037;-78
2023/07/17 04:20:13;;;;;;;6.93;3.53;;;14.90;99.90;;;;;;5040398;28;20033;-78
2023/07/17 04:22:39;;;;;;;6.55;3.80;;;14.90;99.90;;;;;;5041377;28;20045;-77
2023/07/17 04:25:05;;;;;;;12.27;4.05;;;14.90;99.90;;;;;;5011462;28;20122;-78
2023/07/17 04:27:31;;;;;;;12.55;4.07;;;15.00;99.90;;;;;;5020977;28;20045;-78
2023/07/17 04:29:57;;;;;;;7.90;3.80;;;14.90;99.90;;;;;;5029470;28;20045;-78
2023/07/17 04:32:22;;;;;;;6.13;3.20;;;15.00;99.90;;;;;;5033590;28;20124;-77
2023/07/17 04:34:48;;;;;;;6.15;3.40;;;14.90;99.90;;;;;;5008144;28;20036;-78
2023/07/17 04:37:14;;;;;;;9.35;3.72;;;15.00;99.90;;;;;;5057452;28;20030;-78
2023/07/17 04:39:40;;;;;;;6.03;3.08;;;15.00;99.90;;;;;;5031229;28;20048;-78
2023/07/17 04:42:05;;;;;;;8.02;3.30;;;15.00;99.90;;;;;;5012611;28;20102;-77
2023/07/17 04:44:31;;;;;;;7.63;3.35;;;15.00;99.90;;;;;;5040292;28;20029;-77
2023/07/17 04:46:57;;;;;;;5.10;3.22;;;15.10;99.90;;;;;;5026346;28;20033;-77
2023/07/17 04:49:23;;;;;;;8.82;3.70;;;15.10;99.90;;;;;;5002809;28;20041;-79
2023/07/17 04:51:48;;;;;;;8.65;4.05;;;15.10;99.90;;;;;;5009166;28;20045;-78
2023/07/17 04:54:14;;;;;;;12.70;3.50;;;15.10;99.90;;;;;;5076237;28;20064;-78
2023/07/17 04:56:40;;;;;;;9.02;3.92;;;15.20;99.90;;;;;;5029432;28;20041;-78
2023/07/17 04:59:05;;;;;;;11.45;3.70;;;15.20;99.90;;;;;;5010976;28;20502;-78
2023/07/17 05:01:31;;;;;;;6.78;3.80;;;15.20;99.90;;;;;;5056348;28;20040;-78
2023/07/17 05:03:57;;;;;;;10.00;3.63;;;15.20;99.90;;;;;;5078316;28;20077;-78
2023/07/17 05:06:22;;;;;;;8.55;3.45;;;15.30;99.90;;;;;;5031393;28;21352;-78
2023/07/17 05:08:48;;;;;;;9.32;3.80;;;15.30;99.90;;;;;;5079657;28;20132;-79
2023/07/17 05:11:14;;;;;;;10.73;4.18;;;15.30;99.90;;;;;;5021733;28;20509;-78
2023/07/17 05:13:40;;;;;;;10.98;3.15;;;15.40;99.90;;;;;;5027062;28;20033;-78
2023/07/17 05:16:05;;;;;;;7.25;3.15;;;15.40;99.90;;;;;;5041147;28;20098;-78
2023/07/17 05:18:31;;;;;;;9.48;3.47;;;15.40;99.90;;;;;;5021454;28;20445;-79
2023/07/17 05:20:57;;;;;;;7.45;3.50;;;15.40;99.90;;;;;;5048827;28;21230;-81
2023/07/17 05:23:23;;;;;;;6.90;3.30;;;15.40;99.90;;;;;;5011389;28;20686;-81
2023/07/17 05:25:59;;;;;;;5.50;3.35;;;15.50;99.90;;;;;;5011298;28;20040;-80
2023/07/17 05:28:25;;;;;;;5.78;3.20;;;15.50;99.90;;;;;;5021568;28;20029;-78
2023/07/17 05:30:55;;;;;;;11.00;4.13;;;15.60;99.90;;;;;;5028672;28;20045;-78
2023/07/17 05:33:22;;;;;;;9.43;3.35;;;15.60;99.90;;;;;;5041353;28;20037;-78
2023/07/17 05:35:48;;;;;;;9.00;3.63;;;15.60;99.90;;;;;;5077816;28;20051;-78
2023/07/17 05:38:13;;;;;;;8.70;3.50;;;15.70;99.90;;;;;;5035260;28;20041;-79
2023/07/17 05:40:40;;;;;;;10.82;4.30;;;15.70;99.90;;;;;;5079092;28;20033;-78
2023/07/17 05:43:07;;;;;;;9.50;3.55;;;15.70;99.90;;;;;;5008022;28;20033;-78
2023/07/17 05:45:33;;;;;;;7.82;4.18;;;15.80;99.90;;;;;;5016191;28;20048;-78
2023/07/17 05:47:59;;;;;;;8.32;3.58;;;15.80;99.90;;;;;;5055651;28;20082;-78
2023/07/17 05:50:25;;;;;;;9.40;3.78;;;15.90;99.90;;;;;;5018456;28;20033;-78
2023/07/17 05:52:50;;;;;;;10.27;4.30;;;15.80;99.90;;;;;;5030227;28;20410;-78
2023/07/17 05:55:16;;;;;;;12.25;4.32;;;15.90;99.90;;;;;;5012605;28;20491;-78
2023/07/17 05:57:42;;;;;;;6.55;3.03;;;15.90;99.90;;;;;;5071148;28;20107;-79
2023/07/17 06:00:14;;;;;;;8.40;3.28;;;16.00;99.90;;;;;;5025016;28;20122;-78
2023/07/17 06:02:43;;;;;;;7.47;3.55;;;16.00;99.90;;;;;;5029095;28;20052;-79
2023/07/17 06:05:10;;;;;;;9.38;3.63;;;16.00;99.90;;;;;;5022366;28;20032;-78
2023/07/17 06:07:36;;;;;;;7.25;3.35;;;16.10;99.90;;;;;;5076726;28;20041;-78
2023/07/17 06:10:02;;;;;;;9.82;3.72;;;16.10;99.90;;;;;;5053573;28;20499;-78
2023/07/17 06:12:27;;;;;;;9.45;3.60;;;16.10;99.90;;;;;;5026827;28;20047;-79
2023/07/17 06:14:53;;;;;;;7.65;3.33;;;16.20;99.90;;;;;;5023564;28;20041;-79
2023/07/17 06:17:18;;;;;;;12.15;4.78;;;16.20;99.90;;;;;;5007950;28;20092;-78
2023/07/17 06:19:44;;;;;;;14.45;4.30;;;16.30;99.90;;;;;;5005777;28;20045;-78
2023/07/17 06:22:10;;;;;;;11.13;3.97;;;16.40;99.90;;;;;;5008116;28;20060;-78
2023/07/17 06:24:35;;;;;;;8.57;4.13;;;16.40;99.90;;;;;;5051038;28;20041;-78
2023/07/17 06:27:02;;;;;;;12.77;4.30;;;16.40;99.90;;;;;;5038830;28;20063;-78
2023/07/17 06:29:28;;;;;;;9.65;4.30;;;16.50;99.90;;;;;;5017841;28;20186;-78
2023/07/17 06:31:54;;;;;;;8.23;3.70;;;16.50;99.90;;;;;;5037952;28;20410;-79
2023/07/17 06:34:19;;;;;;;9.75;4.90;;;16.60;99.90;;;;;;5054775;28;20048;-79
2023/07/17 06:36:45;;;;;;;12.43;4.30;;;16.70;99.90;;;;;;5028154;28;20033;-79
2023/07/17 06:39:11;;;;;;;14.68;4.93;;;16.70;99.90;;;;;;5037607;28;20109;-79
2023/07/17 06:41:37;;;;;;;13.43;4.50;;;16.70;99.90;;;;;;5007411;28;20098;-79
2023/07/17 06:44:02;;;;;;;12.13;4.00;;;16.70;99.90;;;;;;5009163;28;20120;-78
2023/07/17 06:46:28;;;;;;;8.40;4.20;;;16.80;99.90;;;;;;5022489;28;20494;-78
2023/07/17 06:48:54;;;;;;;14.35;4.72;;;16.90;99.90;;;;;;5023563;28;20036;-78
2023/07/17 06:51:20;;;;;;;9.73;4.25;;;16.90;99.90;;;;;;5028194;28;20041;-79
2023/07/17 06:53:45;;;;;;;13.10;4.63;;;17.00;99.90;;;;;;5046404;28;20048;-78
2023/07/17 06:56:11;;;;;;;12.70;4.35;;;17.00;99.90;;;;;;5070742;28;20049;-77
2023/07/17 06:58:37;;;;;;;10.30;4.40;;;17.10;99.90;;;;;;5067003;28;20457;-66
2023/07/17 07:01:03;;;;;;;10.38;4.78;;;17.10;99.90;;;;;;5043394;28;20049;-66
2023/07/17 07:03:29;;;;;;;12.43;4.60;;;17.20;99.90;;;;;;5043558;28;20041;-67
2023/07/17 07:06:01;;;;;;;11.15;5.03;;;17.30;99.90;;;;;;5038394;28;20056;-67
2023/07/17 07:08:28;;;;;;;12.07;4.95;;;17.30;99.90;;;;;;5038170;28;20033;-67
2023/07/17 07:10:55;;;;;;;7.53;4.20;;;17.50;99.90;;;;;;5050350;28;20067;-67
2023/07/17 07:13:22;;;;;;;12.48;4.68;;;17.60;99.90;;;;;;5066874;28;20085;-67
2023/07/17 07:15:48;;;;;;;11.23;3.70;;;17.50;99.90;;;;;;5074740;28;20048;-70
2023/07/17 07:18:14;;;;;;;10.85;4.65;;;17.50;99.90;;;;;;5042350;28;20040;-68
2023/07/17 07:20:40;;;;;;;10.73;4.97;;;17.70;99.90;;;;;;5043130;28;20068;-68
2023/07/17 07:23:06;;;;;;;13.73;4.63;;;17.70;99.90;;;;;;5055345;28;20137;-67
2023/07/17 07:25:32;;;;;;;11.00;4.38;;;17.70;99.90;;;;;;5042119;28;20055;-68
2023/07/17 07:28:00;;;;;;;14.05;4.68;;;17.70;99.90;;;;;;5043805;28;20048;-68
2023/07/17 07:30:26;;;;;;;13.15;5.60;;;17.80;99.90;;;;;;5042302;28;20106;-67
2023/07/17 07:32:52;;;;;;;11.80;4.70;;;17.80;99.90;;;;;;5036628;28;20099;-67
2023/07/17 07:35:18;;;;;;;10.40;5.30;;;17.90;99.90;;;;;;5020551;28;20553;-68
2023/07/17 07:37:43;;;;;;;8.90;4.32;;;17.90;99.90;;;;;;5075852;28;20040;-67
2023/07/17 07:40:11;;;;;;;8.45;4.72;;;18.10;99.90;;;;;;5073795;28;20166;-68
2023/07/17 07:42:38;;;;;;;15.50;4.15;;;18.30;99.90;;;;;;5049043;28;20380;-68
2023/07/17 07:45:05;;;;;;;13.15;4.63;;;18.50;99.90;;;;;;5081440;28;20409;-68
2023/07/17 07:47:32;;;;;;;8.38;4.60;;;18.70;99.90;;;;;;5060523;28;20041;-68
2023/07/17 07:49:59;;;;;;;11.80;4.75;;;18.70;99.90;;;;;;5077459;28;20075;-68
2023/07/17 07:52:24;;;;;;;10.52;5.10;;;18.70;99.90;;;;;;5053019;28;20044;-68
2023/07/17 07:54:50;;;;;;;10.02;4.80;;;18.60;99.90;;;;;;5049638;28;20041;-68
2023/07/17 07:57:16;;;;;;;10.80;5.18;;;18.70;99.90;;;;;;5048644;28;20118;-79
2023/07/17 07:59:41;;;;;;;12.05;5.30;;;18.60;99.90;;;;;;5050813;28;20118;-79
2023/07/17 08:02:09;;;;;;;9.63;4.25;;;18.60;99.90;;;;;;5065881;28;20044;-79
2023/07/17 08:04:35;;;;;;;12.15;4.38;;;18.70;99.90;;;;;;5032947;28;20037;-79
2023/07/17 08:07:00;;;;;;;9.35;4.40;;;19.00;99.90;;;;;;5018548;28;20041;-79
2023/07/17 08:09:27;;;;;;;9.65;4.10;;;19.20;99.90;;;;;;5016603;28;20131;-80
2023/07/17 08:11:52;;;;;;;8.27;4.40;;;19.20;99.90;;;;;;5052519;28;20037;-79
2023/07/17 08:14:20;;;;;;;5.93;3.70;;;19.10;99.90;;;;;;5052386;28;20158;-79
2023/07/17 08:16:47;;;;;;;7.20;4.13;;;19.30;99.90;;;;;;5017012;28;20567;-79
2023/07/17 08:19:12;;;;;;;9.20;4.13;;;19.40;99.90;;;;;;5012845;28;20064;-80
2023/07/17 08:21:38;;;;;;;9.30;4.28;;;19.40;99.90;;;;;;5062285;28;20502;-79
2023/07/17 08:24:04;;;;;;;8.77;3.95;;;19.60;99.90;;;;;;5034858;28;20116;-79
2023/07/17 08:26:31;;;;;;;8.02;3.72;;;19.70;99.90;;;;;;5032956;28;20049;-79
2023/07/17 08:28:57;;;;;;;9.98;3.75;;;19.90;99.90;;;;;;5033333;28;20064;-79
2023/07/17 08:31:23;;;;;;;7.22;3.70;;;19.80;99.90;;;;;;5032791;28;20037;-79
2023/07/17 08:33:49;;;;;;;10.10;3.78;;;19.60;99.90;;;;;;5048797;28;20512;-80
2023/07/17 08:36:14;;;;;;;8.80;4.18;;;19.60;99.90;;;;;;5043442;28;20047;-79
2023/07/17 08:38:40;;;;;;;8.02;3.30;;;19.50;99.90;;;;;;5068713;28;20041;-79
2023/07/17 08:41:07;;;;;;;9.27;3.08;;;19.30;99.90;;;;;;5035597;28;20094;-79
2023/07/17 08:43:33;;;;;;;9.00;3.40;;;19.30;99.90;;;;;;5017807;28;20525;-79
2023/07/17 08:45:59;;;;;;;6.95;3.70;;;19.30;99.90;;;;;;5083799;28;20029;-79
2023/07/17 08:48:26;;;;;;;6.30;3.30;;;19.30;99.90;;;;;;5035947;28;20033;-79
2023/07/17 08:50:52;;;;;;;6.80;3.35;;;19.30;99.90;;;;;;5036271;28;20047;-79
2023/07/17 08:53:21;;;;;;;5.22;3.17;;;19.40;99.90;;;;;;5035949;28;20450;-80
2023/07/17 08:55:47;;;;;;;11.00;3.53;;;19.50;99.90;;;;;;5038730;28;20080;-80
2023/07/17 08:58:13;;;;;;;7.55;3.55;;;19.40;99.90;;;;;;5055523;28;20580;-80
2023/07/17 09:00:39;;;;;;;10.50;4.72;;;19.20;99.90;;;;;;5050504;28;20071;-79
2023/07/17 09:03:05;;;;;;;14.77;5.03;;;19.20;99.90;;;;;;5019000;28;20080;-80
2023/07/17 09:05:31;;;;;;;7.93;3.83;;;19.10;99.90;;;;;;5035580;28;20037;-79
2023/07/17 09:07:57;;;;;;;9.57;4.40;;;19.00;99.90;;;;;;5035615;28;20041;-79
2023/07/17 09:10:24;;;;;;;11.02;3.63;;;19.00;99.90;;;;;;5052013;28;20498;-80
2023/07/17 09:12:51;;;;;;;8.90;4.00;;;19.00;99.90;;;;;;5078739;28;20037;-80
2023/07/17 09:15:16;;;;;;;9.57;4.00;;;19.20;99.90;;;;;;5071451;28;20037;-80
2023/07/17 09:17:44;;;;;;;9.45;3.70;;;19.20;99.90;;;;;;5062249;28;20513;-79
2023/07/17 09:20:11;;;;;;;6.68;3.53;;;19.40;99.90;;;;;;5035254;28;20037;-80
2023/07/17 09:22:41;;;;;;;6.70;3.38;;;19.60;99.90;;;;;;5021495;28;20061;-80
2023/07/17 09:25:08;;;;;;;8.52;3.72;;;20.00;99.90;;;;;;5058138;28;20517;-79
2023/07/17 09:27:48;;;;;;;7.28;3.50;;;20.20;99.90;;;;;;5038215;28;20048;-80
2023/07/17 09:30:19;;;;;;;10.07;4.00;;;20.30;99.90;;;;;;5045202;28;20036;-79
2023/07/17 09:32:46;;;;;;;7.55;3.38;;;20.50;99.90;;;;;;5043624;28;20048;-80
2023/07/17 09:35:12;;;;;;;6.88;3.83;;;20.70;99.90;;;;;;5018489;28;20044;-82
2023/07/17 09:37:43;;;;;;;10.15;4.25;;;21.00;99.90;;;;;;5051429;28;20056;-79
2023/07/17 09:40:11;;;;;;;8.23;3.65;;;21.00;99.90;;;;;;5085204;28;20044;-79
2023/07/17 09:42:39;;;;;;;6.95;4.05;;;20.70;99.90;;;;;;5051888;28;20040;-79
2023/07/17 09:45:05;;;;;;;10.15;3.55;;;20.30;99.90;;;;;;5085111;28;20517;-79
2023/07/17 09:47:31;;;;;;;12.98;4.30;;;20.00;99.90;;;;;;5034890;28;20045;-78
2023/07/17 09:50:01;;;;;;;11.32;4.57;;;19.60;99.90;;;;;;5037121;28;20119;-78
2023/07/17 09:52:31;;;;;;;8.75;4.32;;;19.00;99.90;;;;;;5064439;28;20051;-78
2023/07/17 09:55:00;;;;;;;12.00;4.50;;;18.50;99.90;;;;;;5054665;28;20191;-78
2023/07/17 09:57:35;;;;;;;7.57;4.20;;;18.20;99.90;;;;;;5053578;28;20037;-78
2023/07/17 10:00:14;;;;;;;7.85;4.07;;;18.30;99.90;;;;;;5069582;28;20044;-78
2023/07/17 10:03:01;;;;;;;10.70;4.60;;;18.40;99.90;;;;;;5049653;28;20124;-78
2023/07/17 10:05:27;;;;;;;6.22;3.97;;;18.50;99.90;;;;;;5055038;28;20040;-78
2023/07/17 10:07:54;;;;;;;6.90;4.20;;;18.50;99.90;;;;;;5038008;28;20072;-78
2023/07/17 10:10:20;;;;;;;8.68;3.83;;;18.50;99.90;;;;;;5049087;28;20040;-78
2023/07/17 10:12:47;;;;;;;5.60;3.47;;;18.60;99.90;;;;;;5041401;28;20059;-79
2023/07/17 10:15:14;;;;;;;7.78;3.75;;;18.50;99.90;;;;;;5030167;28;20032;-78
2023/07/17 10:17:40;;;;;;;8.00;3.65;;;18.50;99.90;;;;;;5034564;28;20049;-78
2023/07/17 10:20:09;;;;;;;8.50;3.95;;;18.70;99.90;;;;;;5034115;28;20580;-79
2023/07/17 10:22:39;;;;;;;9.98;3.72;;;19.00;99.90;;;;;;5034030;28;20534;-79
2023/07/17 10:25:09;;;;;;;9.55;4.22;;;19.20;99.90;;;;;;5063484;28;20075;-78
2023/07/17 10:27:39;;;;;;;10.95;3.92;;;19.20;99.90;;;;;;5050904;28;20080;-79
2023/07/17 10:30:26;;;;;;;9.82;4.78;;;19.50;99.90;;;;;;5017979;28;20116;-80
2023/07/17 10:33:19;;;;;;;8.77;4.20;;;19.70;99.90;;;;;;5043830;28;20482;-78
2023/07/17 10:35:50;;;;;;;8.88;4.45;;;19.60;99.90;;;;;;5070280;28;20036;-79
2023/07/17 10:38:23;;;;;;;7.32;4.28;;;19.40;99.90;;;;;;5053941;28;20066;-79
2023/07/17 10:41:06;;;;;;;12.50;4.78;;;19.20;99.90;;;;;;5070254;28;20545;-79
2023/07/17 10:43:34;;;;;;;10.30;4.30;;;19.00;99.90;;;;;;5070313;28;20043;-79
2023/07/17 10:46:00;;;;;;;11.88;4.03;;;19.00;99.90;;;;;;5050531;28;20097;-79
2023/07/17 10:48:30;;;;;;;6.15;3.72;;;18.90;99.90;;;;;;5084167;28;20499;-79
2023/07/17 10:50:57;;;;;;;10.38;3.45;;;18.90;99.90;;;;;;5069601;28;20036;-79
2023/07/17 10:53:24;;;;;;;7.70;3.25;;;18.90;99.90;;;;;;5053271;28;20047;-79
2023/07/17 10:55:50;;;;;;;6.97;3.40;;;18.90;99.90;;;;;;5053192;28;20498;-79
2023/07/17 10:58:18;;;;;;;9.75;3.28;;;18.80;99.90;;;;;;5053259;28;20060;-79
2023/07/17 11:00:44;;;;;;;7.32;2.75;;;18.90;99.90;;;;;;5050980;28;20040;-79
2023/07/17 11:03:12;;;;;;;12.05;3.70;;;19.10;99.90;;;;;;5056121;28;20040;-79
2023/07/17 11:05:42;;;;;;;6.50;2.88;;;19.20;99.90;;;;;;5034309;28;20037;-79
2023/07/17 11:08:09;;;;;;;6.82;3.28;;;19.20;99.90;;;;;;5042970;28;20541;-79
2023/07/17 11:10:38;;;;;;;8.63;3.10;;;19.20;99.90;;;;;;5054609;28;20080;-79
2023/07/17 11:13:04;;;;;;;7.00;3.03;;;19.20;99.90;;;;;;5033110;28;20075;-79
2023/07/17 11:15:32;;;;;;;8.40;2.78;;;19.30;99.90;;;;;;5032883;28;20205;-79
2023/07/17 11:18:03;;;;;;;6.97;2.53;;;19.70;99.90;;;;;;5049477;28;20590;-79
2023/07/17 11:20:30;;;;;;;6.03;2.42;;;20.10;99.90;;;;;;5032730;28;20079;-79
2023/07/17 11:22:56;;;;;;;5.35;2.63;;;20.50;99.90;;;;;;5032915;28;20167;-79
2023/07/17 11:25:25;;;;;;;6.00;2.42;;;21.00;99.90;;;;;;5032597;28;20079;-80
2023/07/17 11:27:52;;;;;;;4.35;2.20;;;21.30;99.90;;;;;;5037572;28;20037;-80
2023/07/17 11:30:24;;;;;;;4.65;2.30;;;21.50;99.80;;;;;;5032483;28;20131;-79
2023/07/17 11:33:10;;;;;;;5.88;2.65;;;21.80;97.70;;;;;;5032673;28;20036;-80
2023/07/17 11:35:44;;;;;;;6.60;2.45;;;22.00;98.60;;;;;;5048790;28;20102;-80
2023/07/17 11:38:12;;;;;;;4.03;2.20;;;22.40;99.10;;;;;;5033218;28;20048;-80
2023/07/17 11:40:51;;;;;;;3.10;2.15;;;22.60;97.50;;;;;;5038629;28;20048;-80
2023/07/17 11:43:24;;;;;;;4.97;2.50;;;22.70;95.90;;;;;;5037460;28;20462;-80
2023/07/17 11:45:50;;;;;;;5.95;2.20;;;22.50;95.50;;;;;;5026135;28;20556;-80
2023/07/17 11:48:15;;;;;;;3.95;2.35;;;22.50;95.50;;;;;;5033493;28;20128;-80
2023/07/17 11:50:41;;;;;;;3.95;2.25;;;22.50;95.20;;;;;;5037677;28;20045;-80
2023/07/17 11:53:11;;;;;;;3.17;2.40;;;22.80;95.40;;;;;;5032669;28;20056;-79
2023/07/17 11:55:38;;;;;;;5.15;2.50;;;23.00;96.10;;;;;;5048869;28;20196;-79
2023/07/17 11:58:16;;;;;;;3.90;2.40;;;23.00;94.50;;;;;;5051930;28;20036;-80
2023/07/17 12:00:43;;;;;;;4.47;2.45;;;22.90;93.50;;;;;;5032145;28;20033;-80
2023/07/17 12:03:09;;;;;;;3.60;1.92;;;22.70;94.00;;;;;;5059165;28;20028;-80
2023/07/17 12:05:39;;;;;;;6.68;2.20;;;22.40;93.90;;;;;;5034067;28;20397;-80
2023/07/17 12:08:05;;;;;;;8.68;2.53;;;22.20;93.40;;;;;;5048559;28;20044;-79
2023/07/17 12:10:31;;;;;;;4.22;2.08;;;22.10;93.70;;;;;;5049186;28;20045;-80
2023/07/17 12:12:58;;;;;;;3.40;2.20;;;22.20;94.70;;;;;;5048411;28;20083;-79
2023/07/17 12:15:23;;;;;;;5.47;2.30;;;22.10;94.30;;;;;;5032426;28;20037;-80
2023/07/17 12:17:50;;;;;;;5.45;2.40;;;21.90;94.10;;;;;;5015844;28;20052;-79
2023/07/17 12:20:16;;;;;;;5.13;2.45;;;21.70;93.80;;;;;;5032936;28;20037;-79
2023/07/17 12:22:42;;;;;;;4.85;2.22;;;21.60;94.20;;;;;;5036308;28;20053;-79
2023/07/17 12:25:08;;;;;;;5.90;2.30;;;21.60;94.50;;;;;;5019969;28;20052;-79
2023/07/17 12:27:34;;;;;;;8.43;2.35;;;21.50;94.40;;;;;;5036106;28;20478;-79
2023/07/17 12:30:00;;;;;;;3.78;2.08;;;21.40;94.50;;;;;;5019935;28;20187;-79
2023/07/17 12:32:26;;;;;;;4.63;1.85;;;21.20;94.80;;;;;;5052757;28;20044;-79
2023/07/17 12:34:52;;;;;;;4.18;1.70;;;21.10;94.40;;;;;;5019580;28;20307;-79
2023/07/17 12:37:17;;;;;;;3.55;2.17;;;20.90;94.60;;;;;;5036039;28;20037;-79
2023/07/17 12:39:43;;;;;;;4.75;2.03;;;20.70;95.10;;;;;;5052492;28;20115;-79
2023/07/17 12:42:09;;;;;;;4.38;1.90;;;20.50;95.80;;;;;;5026714;28;20040;-78
2023/07/17 12:44:34;;;;;;;2.38;1.75;;;20.30;97.70;;;;;;5044350;28;20040;-80